Time;durP1;ratioP1;P1;durP2;ratioP2;P2;SDS_P1;SDS_P2;PMS_P1;PMS_P2;Temp;Humidity;BMP_temperature;BMP_pressure;BME280_temperature;BME280_humidity;BME280_pressure;Samples;Min_cycle;Max_cycle;Signal;HPM_P1;HPM_P2
2022/04/20 00:00:20;;;;;;;18.23;13.10;;;3.60;99.90;;;;;;2506849;23;19999;-72
2022/04/20 00:01:22;;;;;;;18.63;13.55;;;3.60;99.90;;;;;;2506961;23;20014;-72
2022/04/20 00:02:23;;;;;;;17.55;13.63;;;3.60;99.90;;;;;;2494461;23;20003;-71
2022/04/20 00:03:24;;;;;;;19.50;14.02;;;3.60;99.90;;;;;;2482104;23;20011;-71
2022/04/20 00:04:24;;;;;;;20.25;14.20;;;3.50;99.90;;;;;;2494310;23;20075;-70
2022/04/20 00:05:25;;;;;;;18.58;14.13;;;3.50;99.90;;;;;;2507043;23;20006;-71
2022/04/20 00:06:26;;;;;;;17.58;13.00;;;3.50;99.90;;;;;;2506722;23;20025;-72
2022/04/20 00:07:26;;;;;;;18.30;12.98;;;3.50;99.90;;;;;;2506342;23;20364;-70
2022/04/20 00:08:27;;;;;;;17.70;13.30;;;3.50;99.90;;;;;;2506212;23;20006;-72
2022/04/20 00:09:27;;;;;;;16.90;12.80;;;3.50;99.90;;;;;;2494408;23;20091;-71
2022/04/20 00:10:29;;;;;;;17.05;12.88;;;3.50;99.90;;;;;;2494289;23;20022;-71
2022/04/20 00:11:30;;;;;;;17.00;12.80;;;3.50;99.90;;;;;;2482739;23;20015;-71
2022/04/20 00:12:30;;;;;;;16.25;12.77;;;3.50;99.90;;;;;;2471240;24;20477;-71
2022/04/20 00:13:31;;;;;;;15.20;12.23;;;3.50;99.90;;;;;;2494017;23;20008;-71
2022/04/20 00:14:32;;;;;;;17.70;12.45;;;3.50;99.90;;;;;;2507055;23;20014;-71
2022/04/20 00:15:32;;;;;;;16.27;13.07;;;3.50;99.90;;;;;;2507033;23;20086;-71
2022/04/20 00:16:33;;;;;;;16.05;12.82;;;3.50;99.90;;;;;;2506948;23;20036;-71
2022/04/20 00:17:34;;;;;;;16.48;13.07;;;3.50;99.90;;;;;;2506802;23;20019;-71
2022/04/20 00:18:34;;;;;;;16.23;12.57;;;3.50;99.90;;;;;;2506991;23;20507;-71
2022/04/20 00:19:35;;;;;;;17.40;13.40;;;3.50;99.90;;;;;;2506934;23;20049;-70
2022/04/20 00:20:35;;;;;;;16.80;12.48;;;3.50;99.90;;;;;;2506592;23;20073;-71
2022/04/20 00:21:36;;;;;;;16.58;12.32;;;3.50;99.90;;;;;;2506959;23;20499;-70
2022/04/20 00:22:37;;;;;;;16.92;12.63;;;3.50;99.90;;;;;;2507171;23;20031;-72
2022/04/20 00:23:37;;;;;;;17.35;12.80;;;3.40;99.90;;;;;;2506553;23;20082;-70
2022/04/20 00:24:38;;;;;;;17.13;13.05;;;3.40;99.90;;;;;;2507043;23;20010;-70
2022/04/20 00:25:38;;;;;;;17.05;12.60;;;3.40;99.90;;;;;;2494397;23;20086;-71
2022/04/20 00:26:39;;;;;;;16.10;12.18;;;3.40;99.90;;;;;;2494506;23;20003;-71
2022/04/20 00:27:41;;;;;;;16.75;12.50;;;3.40;99.90;;;;;;2494229;23;20099;-71
2022/04/20 00:28:41;;;;;;;18.27;13.30;;;3.40;99.90;;;;;;2494563;23;20126;-70
2022/04/20 00:29:42;;;;;;;17.13;13.20;;;3.40;99.90;;;;;;2507091;23;20070;-70
2022/04/20 00:30:42;;;;;;;17.95;13.38;;;3.30;99.90;;;;;;2506996;23;20078;-69
2022/04/20 00:31:43;;;;;;;16.92;12.50;;;3.40;99.90;;;;;;2507001;23;20038;-71
2022/04/20 00:32:44;;;;;;;15.85;12.48;;;3.30;99.90;;;;;;2506948;23;20140;-72
2022/04/20 00:33:44;;;;;;;16.17;12.85;;;3.30;99.90;;;;;;2506479;23;20003;-69
2022/04/20 00:34:45;;;;;;;16.30;12.70;;;3.30;99.90;;;;;;2506917;23;20011;-71
2022/04/20 00:35:46;;;;;;;17.15;13.13;;;3.30;99.90;;;;;;2507084;23;20046;-69
2022/04/20 00:36:50;;;;;;;16.90;13.25;;;3.30;99.90;;;;;;2506847;23;20038;-68
2022/04/20 00:37:51;;;;;;;17.00;12.70;;;3.30;99.90;;;;;;2494373;23;20015;-69
2022/04/20 00:38:52;;;;;;;17.67;12.98;;;3.30;99.90;;;;;;2482786;23;20463;-69
2022/04/20 00:39:52;;;;;;;16.77;12.80;;;3.30;99.90;;;;;;2482767;23;20039;-69
2022/04/20 00:40:53;;;;;;;15.55;12.35;;;3.30;99.90;;;;;;2483631;23;20447;-69
2022/04/20 00:41:54;;;;;;;16.65;12.55;;;3.20;99.90;;;;;;2496218;23;20003;-70
2022/04/20 00:42:55;;;;;;;16.65;12.50;;;3.20;99.90;;;;;;2509055;23;20015;-70
2022/04/20 00:43:56;;;;;;;16.52;12.50;;;3.20;99.90;;;;;;2496028;23;20650;-71
2022/04/20 00:44:58;;;;;;;17.58;13.13;;;3.20;99.90;;;;;;2495357;23;20059;-71
2022/04/20 00:46:00;;;;;;;17.67;12.88;;;3.20;99.90;;;;;;2506469;23;20010;-72
2022/04/20 00:47:02;;;;;;;17.48;12.93;;;3.20;99.90;;;;;;2506191;23;20011;-71
2022/04/20 00:48:03;;;;;;;16.23;12.65;;;3.20;99.90;;;;;;2506254;23;20463;-71
2022/04/20 00:49:06;;;;;;;16.10;12.43;;;3.20;99.90;;;;;;2494268;23;20011;-70
2022/04/20 00:50:07;;;;;;;17.25;12.82;;;3.20;99.90;;;;;;2494217;23;20344;-70
2022/04/20 00:51:08;;;;;;;15.98;12.75;;;3.20;99.90;;;;;;2494056;23;20008;-72
2022/04/20 00:52:10;;;;;;;16.70;12.70;;;3.10;99.90;;;;;;2482675;23;20011;-72
2022/04/20 00:53:12;;;;;;;16.65;12.75;;;3.20;99.90;;;;;;2482780;23;20090;-71
2022/04/20 00:54:12;;;;;;;16.30;13.10;;;3.10;99.90;;;;;;2483490;23;20456;-70
2022/04/20 00:55:13;;;;;;;17.70;13.27;;;3.10;99.90;;;;;;2495009;23;20011;-71
2022/04/20 00:56:16;;;;;;;20.35;14.05;;;3.10;99.90;;;;;;2495287;23;20443;-69
2022/04/20 00:57:16;;;;;;;19.38;14.68;;;3.10;99.90;;;;;;2495090;23;20007;-71
2022/04/20 00:58:17;;;;;;;20.20;14.20;;;3.10;99.90;;;;;;2495019;23;20111;-71
2022/04/20 00:59:20;;;;;;;18.77;13.52;;;3.10;99.90;;;;;;2495108;23;20026;-71
2022/04/20 01:00:21;;;;;;;16.48;12.82;;;3.10;99.90;;;;;;2506718;23;20002;-70
2022/04/20 01:01:22;;;;;;;15.88;12.57;;;3.10;99.90;;;;;;2495168;23;20090;-71
2022/04/20 01:02:23;;;;;;;16.27;12.20;;;3.10;99.90;;;;;;2496661;23;20389;-71
2022/04/20 01:03:26;;;;;;;17.80;13.23;;;3.00;99.90;;;;;;2498464;23;20011;-70
2022/04/20 01:04:56;;;;;;;17.17;13.00;;;3.00;99.90;;;;;;2505533;23;20022;-70
2022/04/20 01:06:15;;;;;;;18.88;13.70;;;3.00;99.90;;;;;;2511477;23;20018;-71
2022/04/20 01:07:40;;;;;;;19.38;12.98;;;3.00;99.90;;;;;;2507743;23;20035;-70
2022/04/20 01:09:18;;;;;;;17.77;12.93;;;3.00;99.90;;;;;;2507612;23;20042;-71
2022/04/20 01:10:39;;;;;;;17.92;13.07;;;2.90;99.90;;;;;;2507250;23;20011;-71
2022/04/20 01:11:58;;;;;;;18.08;12.98;;;2.90;99.90;;;;;;2507791;23;20023;-71
2022/04/20 01:13:25;;;;;;;17.23;13.25;;;2.90;99.90;;;;;;2484200;23;20012;-71
2022/04/20 01:14:43;;;;;;;18.17;13.00;;;2.90;99.90;;;;;;2494904;23;20019;-73
2022/04/20 01:16:03;;;;;;;17.35;12.65;;;2.90;99.90;;;;;;2499101;23;20434;-71
2022/04/20 01:17:22;;;;;;;17.40;12.27;;;2.90;99.90;;;;;;2507842;23;20018;-70
2022/04/20 01:18:45;;;;;;;17.83;12.57;;;2.90;99.90;;;;;;2506212;23;20003;-72
2022/04/20 01:20:24;;;;;;;16.05;12.35;;;2.90;99.90;;;;;;2483269;23;20143;-72
2022/04/20 01:21:37;;;;;;;17.02;12.35;;;2.90;99.90;;;;;;2471064;24;20345;-72
2022/04/20 01:22:46;;;;;;;17.75;12.90;;;2.90;99.90;;;;;;2461066;24;20538;-73
2022/04/20 01:24:20;;;;;;;16.35;12.43;;;2.90;99.90;;;;;;2465773;24;20086;-72
2022/04/20 01:25:41;;;;;;;;;;;2.90;99.90;;;;;;2461229;24;20009;-73
2022/04/20 01:26:56;;;;;;;19.65;12.85;;;2.90;99.90;;;;;;2495056;23;19910;-72
2022/04/20 01:28:17;;;;;;;16.52;12.90;;;2.90;99.90;;;;;;2499019;23;20070;-71
2022/04/20 01:29:28;;;;;;;17.60;12.82;;;2.90;99.90;;;;;;2494922;23;20034;-72
2022/04/20 01:30:35;;;;;;;17.38;12.80;;;2.90;99.90;;;;;;2496679;23;20086;-73
2022/04/20 01:32:02;;;;;;;15.50;11.73;;;2.90;99.90;;;;;;2506321;23;20129;-72
2022/04/20 01:33:19;;;;;;;16.63;12.88;;;2.90;99.90;;;;;;2506341;23;20399;-71
2022/04/20 01:34:24;;;;;;;17.08;12.98;;;2.90;99.90;;;;;;2506601;23;20753;-71
2022/04/20 01:35:24;;;;;;;16.63;12.82;;;2.90;99.90;;;;;;2495076;23;20035;-73
2022/04/20 01:36:25;;;;;;;17.20;13.05;;;2.90;99.90;;;;;;2494972;23;20023;-72
2022/04/20 01:37:26;;;;;;;17.40;13.18;;;2.90;99.90;;;;;;2507053;23;20344;-73
2022/04/20 01:38:26;;;;;;;17.90;13.00;;;2.90;99.90;;;;;;2495051;23;20364;-72
2022/04/20 01:39:27;;;;;;;17.40;12.77;;;2.90;99.90;;;;;;2495131;23;20007;-73
2022/04/20 01:40:29;;;;;;;16.88;12.80;;;2.90;99.90;;;;;;2506525;23;20154;-69
2022/04/20 01:41:30;;;;;;;18.10;12.70;;;2.90;99.90;;;;;;2507067;23;20520;-71
2022/04/20 01:42:32;;;;;;;17.85;13.02;;;2.90;99.90;;;;;;2506494;23;20015;-72
2022/04/20 01:43:35;;;;;;;18.13;13.25;;;2.90;99.90;;;;;;2494376;23;20873;-70
2022/04/20 01:44:54;;;;;;;18.30;13.10;;;2.90;99.90;;;;;;2495203;23;20445;-71
2022/04/20 01:46:15;;;;;;;;;;;2.90;99.90;;;;;;2495978;23;20512;-71
2022/04/20 01:47:28;;;;;;;18.25;13.82;;;2.90;99.90;;;;;;2499754;23;19916;-73
2022/04/20 01:48:50;;;;;;;18.73;13.77;;;2.90;99.90;;;;;;2506650;23;20018;-71
2022/04/20 01:50:05;;;;;;;19.90;14.38;;;2.90;99.90;;;;;;2494551;23;20094;-72
2022/04/20 01:53:04;;;;;;;20.05;13.05;;;2.80;99.90;;;;;;2495519;23;20110;-71
2022/04/20 01:54:27;;;;;;;17.77;12.57;;;2.80;99.90;;;;;;2506326;23;20003;-72
2022/04/20 01:55:34;;;;;;;19.40;13.50;;;2.80;99.90;;;;;;2495104;23;20025;-72
2022/04/20 01:56:49;;;;;;;17.92;12.95;;;2.80;99.90;;;;;;2485674;23;20007;-72
2022/04/20 01:58:05;;;;;;;17.40;13.00;;;2.80;99.90;;;;;;2498041;23;20014;-72
2022/04/20 01:59:27;;;;;;;17.83;12.98;;;2.80;99.90;;;;;;2506598;23;20089;-73
2022/04/20 02:00:40;;;;;;;15.48;12.45;;;2.80;99.90;;;;;;2494451;23;20512;-72
2022/04/20 02:03:22;;;;;;;18.55;13.90;;;2.80;99.90;;;;;;2494169;23;20009;-71
2022/04/20 02:04:34;;;;;;;19.08;13.50;;;2.70;99.90;;;;;;2484679;23;20011;-70
2022/04/20 02:05:35;;;;;;;17.73;13.15;;;2.70;99.90;;;;;;2494577;23;20091;-71
2022/04/20 02:07:05;;;;;;;16.75;13.27;;;2.80;99.90;;;;;;2496037;23;20010;-72
2022/04/20 02:08:12;;;;;;;17.65;12.77;;;2.80;99.90;;;;;;2494736;23;20007;-71
2022/04/20 02:09:32;;;;;;;18.17;13.00;;;2.80;99.90;;;;;;2495133;23;20007;-71
2022/04/20 02:10:36;;;;;;;17.85;13.20;;;2.80;99.90;;;;;;2506333;23;20846;-71
2022/04/20 02:11:38;;;;;;;16.75;13.27;;;2.80;99.90;;;;;;2505812;23;20011;-71
2022/04/20 02:12:49;;;;;;;17.23;12.40;;;2.80;99.90;;;;;;2497115;23;20138;-70
2022/04/20 02:14:01;;;;;;;16.92;13.13;;;2.80;99.90;;;;;;2504470;23;20011;-71
2022/04/20 02:15:02;;;;;;;15.27;12.43;;;2.80;99.90;;;;;;2506682;23;20021;-71
2022/04/20 02:16:32;;;;;;;18.40;12.85;;;2.80;99.90;;;;;;2470930;24;20393;-71
2022/04/20 02:17:53;;;;;;;17.02;12.60;;;2.80;99.90;;;;;;2469146;23;20485;-71
2022/04/20 02:19:03;;;;;;;17.60;13.07;;;2.70;99.90;;;;;;2506738;23;20788;-72
2022/04/20 02:20:10;;;;;;;14.93;12.45;;;2.70;99.90;;;;;;2509285;23;20054;-70
2022/04/20 02:21:12;;;;;;;18.85;13.27;;;2.80;99.90;;;;;;2506680;23;20002;-72
2022/04/20 02:22:12;;;;;;;15.77;12.75;;;2.70;99.90;;;;;;2506862;23;20577;-71
2022/04/20 02:23:14;;;;;;;15.30;12.57;;;2.80;99.90;;;;;;2506111;23;20010;-71
2022/04/20 02:24:15;;;;;;;16.63;12.98;;;2.70;99.90;;;;;;2506695;23;20010;-71
2022/04/20 02:25:16;;;;;;;17.38;13.60;;;2.70;99.90;;;;;;2506458;23;20007;-71
2022/04/20 02:26:17;;;;;;;15.23;12.43;;;2.70;99.90;;;;;;2506571;23;20016;-70
2022/04/20 02:27:20;;;;;;;17.95;13.30;;;2.70;99.90;;;;;;2494801;23;20058;-71
2022/04/20 02:28:21;;;;;;;16.85;13.10;;;2.70;99.90;;;;;;2483069;23;20036;-71
2022/04/20 02:29:22;;;;;;;17.27;13.65;;;2.70;99.90;;;;;;2494900;23;20003;-70
2022/04/20 02:30:23;;;;;;;18.08;13.48;;;2.70;99.90;;;;;;2495308;23;20006;-70
2022/04/20 02:31:23;;;;;;;16.73;12.68;;;2.70;99.90;;;;;;2495521;23;20006;-71
2022/04/20 02:32:24;;;;;;;17.83;13.18;;;2.70;99.90;;;;;;2506408;23;20742;-71
2022/04/20 02:33:25;;;;;;;16.63;12.52;;;2.70;99.90;;;;;;2505804;23;20046;-71
2022/04/20 02:34:26;;;;;;;17.15;13.57;;;2.70;99.90;;;;;;2506310;23;20706;-72
2022/04/20 02:35:27;;;;;;;16.23;12.95;;;2.70;99.90;;;;;;2506752;23;20010;-72
2022/04/20 02:36:28;;;;;;;16.42;13.15;;;2.70;99.90;;;;;;2506311;23;20531;-72
2022/04/20 02:37:29;;;;;;;17.55;13.23;;;2.70;99.90;;;;;;2495503;23;20560;-71
2022/04/20 02:38:30;;;;;;;17.05;13.00;;;2.70;99.90;;;;;;2495429;23;20010;-72
2022/04/20 02:39:32;;;;;;;16.75;13.32;;;2.70;99.90;;;;;;2506645;23;20010;-72
2022/04/20 02:40:33;;;;;;;16.88;13.43;;;2.70;99.90;;;;;;2506180;23;20015;-70
2022/04/20 02:41:37;;;;;;;16.40;12.98;;;2.70;99.90;;;;;;2494686;23;20027;-71
2022/04/20 02:42:38;;;;;;;18.20;12.88;;;2.60;99.90;;;;;;2496951;23;20000;-72
2022/04/20 02:43:39;;;;;;;19.77;13.93;;;2.70;99.90;;;;;;2495477;23;20040;-70
2022/04/20 02:44:40;;;;;;;19.02;13.45;;;2.60;99.90;;;;;;2496724;23;20061;-71
2022/04/20 02:45:41;;;;;;;17.90;13.35;;;2.60;99.90;;;;;;2507424;23;20042;-72
2022/04/20 02:46:43;;;;;;;17.13;13.15;;;2.70;99.90;;;;;;2507449;23;20042;-71
2022/04/20 02:47:44;;;;;;;16.65;13.00;;;2.60;99.90;;;;;;2496585;23;20018;-71
2022/04/20 02:48:44;;;;;;;16.33;12.50;;;2.60;99.90;;;;;;2496334;23;20090;-72
2022/04/20 02:49:45;;;;;;;19.27;13.00;;;2.60;99.90;;;;;;2496321;23;20086;-70
2022/04/20 02:50:46;;;;;;;15.25;11.95;;;2.60;99.90;;;;;;2507873;23;20042;-70
2022/04/20 02:51:48;;;;;;;17.08;12.32;;;2.50;99.90;;;;;;2495878;23;20245;-71
2022/04/20 02:52:48;;;;;;;16.42;12.63;;;2.50;99.90;;;;;;2495163;23;20702;-71
2022/04/20 02:53:49;;;;;;;18.00;13.13;;;2.50;99.90;;;;;;2494804;23;20090;-72
2022/04/20 02:54:50;;;;;;;16.85;12.70;;;2.50;99.90;;;;;;2494960;23;20022;-71
2022/04/20 02:55:51;;;;;;;16.75;12.82;;;2.50;99.90;;;;;;2494997;23;20090;-69
2022/04/20 02:56:52;;;;;;;16.90;12.20;;;2.50;99.90;;;;;;2495089;23;20015;-71
2022/04/20 02:57:53;;;;;;;15.38;12.30;;;2.50;99.90;;;;;;2494763;23;20105;-70
2022/04/20 02:58:54;;;;;;;17.50;12.68;;;2.50;99.90;;;;;;2506637;23;20030;-69
2022/04/20 02:59:56;;;;;;;16.88;12.50;;;2.50;99.90;;;;;;2506535;23;20023;-72
2022/04/20 03:00:57;;;;;;;16.95;12.52;;;2.40;99.90;;;;;;2506804;23;20011;-70
2022/04/20 03:02:02;;;;;;;16.75;12.30;;;2.50;99.90;;;;;;2494682;23;20010;-70
2022/04/20 03:03:04;;;;;;;16.05;12.23;;;2.40;99.90;;;;;;2494919;23;20018;-70
2022/04/20 03:04:05;;;;;;;17.30;12.68;;;2.40;99.90;;;;;;2483065;23;20019;-72
2022/04/20 03:05:07;;;;;;;16.08;12.80;;;2.40;99.90;;;;;;2483560;23;20020;-69
2022/04/20 03:06:07;;;;;;;16.98;13.02;;;2.40;99.90;;;;;;2483676;23;20016;-71
2022/04/20 03:07:08;;;;;;;15.85;12.40;;;2.50;99.90;;;;;;2483623;23;20007;-71
2022/04/20 03:08:17;;;;;;;18.30;12.93;;;2.40;99.90;;;;;;2496814;23;20062;-70
2022/04/20 03:09:18;;;;;;;19.13;13.57;;;2.40;99.90;;;;;;2507066;23;20067;-70
2022/04/20 03:10:19;;;;;;;16.52;12.80;;;2.40;99.90;;;;;;2483183;23;20472;-70
2022/04/20 03:11:21;;;;;;;16.13;12.48;;;2.40;99.90;;;;;;2495622;23;20507;-70
2022/04/20 03:12:23;;;;;;;16.23;12.50;;;2.40;99.90;;;;;;2506880;23;20007;-70
2022/04/20 03:13:27;;;;;;;16.58;12.88;;;2.40;99.90;;;;;;2495340;23;20464;-71
2022/04/20 03:14:28;;;;;;;18.27;13.20;;;2.40;99.90;;;;;;2483548;23;20011;-70
2022/04/20 03:15:33;;;;;;;17.30;12.88;;;2.40;99.90;;;;;;2473752;23;20611;-70
2022/04/20 03:16:36;;;;;;;16.77;12.50;;;2.40;99.90;;;;;;2495874;23;20034;-70
2022/04/20 03:17:42;;;;;;;16.58;12.77;;;2.40;99.90;;;;;;2507421;23;20373;-69
2022/04/20 03:18:44;;;;;;;16.98;13.35;;;2.40;99.90;;;;;;2484190;23;20071;-71
2022/04/20 03:19:53;;;;;;;17.50;13.65;;;2.40;99.90;;;;;;2475677;23;20015;-70
2022/04/20 03:20:55;;;;;;;17.00;13.25;;;2.40;99.90;;;;;;2495582;23;20011;-69
2022/04/20 03:21:55;;;;;;;17.48;13.30;;;2.40;99.90;;;;;;2495950;23;20004;-70
2022/04/20 03:23:00;;;;;;;17.27;13.15;;;2.40;99.90;;;;;;2507032;23;20086;-70
2022/04/20 03:24:02;;;;;;;18.08;13.20;;;2.30;99.90;;;;;;2494551;23;20014;-69
2022/04/20 03:25:27;;;;;;;17.63;12.90;;;2.30;99.90;;;;;;2487880;23;20539;-71
2022/04/20 03:26:46;;;;;;;16.85;13.20;;;2.30;99.90;;;;;;2495017;23;20011;-70
2022/04/20 03:27:57;;;;;;;15.65;12.45;;;2.40;99.90;;;;;;2495633;23;20015;-70
2022/04/20 03:28:57;;;;;;;17.08;12.90;;;2.40;99.90;;;;;;2494766;23;20460;-70
2022/04/20 03:29:58;;;;;;;17.25;13.23;;;2.40;99.90;;;;;;2494600;23;20063;-69
2022/04/20 03:30:59;;;;;;;18.13;13.18;;;2.40;99.90;;;;;;2495367;23;20348;-70
2022/04/20 03:32:02;;;;;;;15.85;12.88;;;2.40;99.90;;;;;;2506331;23;20034;-69
2022/04/20 03:33:05;;;;;;;17.85;13.70;;;2.40;99.90;;;;;;2494613;23;20071;-68
2022/04/20 03:34:06;;;;;;;17.40;13.35;;;2.40;99.90;;;;;;2494529;23;20075;-70
2022/04/20 03:35:08;;;;;;;16.30;12.73;;;2.40;99.90;;;;;;2482554;23;20023;-68
2022/04/20 03:36:08;;;;;;;16.10;12.40;;;2.30;99.90;;;;;;2482876;23;20008;-71
2022/04/20 03:37:10;;;;;;;16.23;13.13;;;2.40;99.90;;;;;;2483080;23;20071;-70
2022/04/20 03:38:14;;;;;;;17.70;13.27;;;2.40;99.90;;;;;;2482949;23;20012;-71
2022/04/20 03:39:15;;;;;;;16.38;13.18;;;2.40;99.90;;;;;;2471354;23;20394;-70
2022/04/20 03:40:18;;;;;;;16.08;12.70;;;2.40;99.90;;;;;;2482391;23;20026;-72
2022/04/20 03:41:19;;;;;;;18.75;13.43;;;2.40;99.90;;;;;;2482853;23;20008;-69
2022/04/20 03:42:19;;;;;;;17.40;13.15;;;2.40;99.90;;;;;;2482923;23;20004;-70
2022/04/20 03:43:20;;;;;;;19.33;13.80;;;2.40;99.90;;;;;;2494732;23;20014;-69
2022/04/20 03:44:20;;;;;;;16.98;13.13;;;2.40;99.90;;;;;;2495278;23;20131;-70
2022/04/20 03:45:21;;;;;;;18.73;13.32;;;2.40;99.90;;;;;;2482590;23;20008;-70
2022/04/20 03:46:23;;;;;;;16.33;13.23;;;2.40;99.90;;;;;;2459654;24;20008;-69
2022/04/20 03:47:23;;;;;;;17.60;13.38;;;2.40;99.90;;;;;;2471594;23;20406;-69
2022/04/20 03:48:24;;;;;;;16.90;13.13;;;2.40;99.90;;;;;;2495282;23;20003;-70
2022/04/20 03:49:24;;;;;;;17.77;13.15;;;2.40;99.90;;;;;;2471363;24;20033;-70
2022/04/20 03:50:25;;;;;;;16.05;12.85;;;2.40;99.90;;;;;;2470991;24;20024;-70
2022/04/20 03:51:26;;;;;;;18.85;12.82;;;2.40;99.90;;;;;;2495262;23;20012;-70
2022/04/20 03:52:28;;;;;;;16.17;12.45;;;2.40;99.90;;;;;;2494557;23;20008;-70
2022/04/20 03:53:28;;;;;;;16.80;13.05;;;2.40;99.90;;;;;;2493943;23;20095;-68
2022/04/20 03:54:31;;;;;;;15.57;12.65;;;2.40;99.90;;;;;;2494212;23;20384;-69
2022/04/20 03:55:32;;;;;;;17.42;13.32;;;2.40;99.90;;;;;;2494583;23;20026;-69
2022/04/20 03:57:03;;;;;;;17.02;13.02;;;2.40;99.90;;;;;;2482913;23;20127;-70
2022/04/20 03:57:54;;;;;;;17.27;12.80;;;2.40;99.90;;;;;;2475059;23;20016;-71
2022/04/20 03:58:55;;;;;;;17.25;13.25;;;2.40;99.90;;;;;;2471241;23;20465;-71
2022/04/20 03:59:55;;;;;;;16.10;12.75;;;2.50;99.90;;;;;;2482308;23;20008;-71
2022/04/20 04:00:57;;;;;;;17.08;13.15;;;2.40;99.90;;;;;;2494220;23;20011;-70
2022/04/20 04:01:58;;;;;;;16.65;13.23;;;2.50;99.90;;;;;;2494563;23;20013;-70
2022/04/20 04:02:59;;;;;;;17.15;13.00;;;2.50;99.90;;;;;;2494395;23;20824;-72
2022/04/20 04:04:05;;;;;;;16.52;12.95;;;2.50;99.90;;;;;;2482433;23;20011;-71
2022/04/20 04:05:07;;;;;;;17.23;13.38;;;2.50;99.90;;;;;;2482757;23;20012;-72
2022/04/20 04:06:17;;;;;;;;;;;2.50;99.90;;;;;;2483238;23;20070;-71
2022/04/20 04:07:19;;;;;;;15.90;12.63;;;2.50;99.90;;;;;;2482776;23;19938;-72
2022/04/20 04:08:20;;;;;;;16.70;12.38;;;2.50;99.90;;;;;;2482613;23;20023;-71
2022/04/20 04:09:20;;;;;;;17.08;12.93;;;2.60;99.90;;;;;;2482760;23;20106;-71
2022/04/20 04:10:22;;;;;;;15.98;12.50;;;2.60;99.90;;;;;;2482441;23;20008;-72
2022/04/20 04:11:22;;;;;;;16.48;12.82;;;2.60;99.90;;;;;;2482684;23;20349;-72
2022/04/20 04:12:23;;;;;;;16.70;13.43;;;2.60;99.90;;;;;;2482534;23;20099;-72
2022/04/20 04:13:28;;;;;;;16.48;12.90;;;2.60;99.90;;;;;;2481928;23;20369;-72
2022/04/20 04:14:35;;;;;;;16.40;12.95;;;2.60;99.90;;;;;;2482995;23;20084;-70
2022/04/20 04:15:36;;;;;;;18.83;13.35;;;2.60;99.90;;;;;;2482741;23;20476;-70
2022/04/20 04:16:37;;;;;;;15.45;12.73;;;2.70;99.90;;;;;;2482521;23;20060;-71
2022/04/20 04:17:38;;;;;;;18.33;13.25;;;2.70;99.90;;;;;;2494427;23;20018;-72
2022/04/20 04:18:39;;;;;;;17.65;13.00;;;2.70;99.90;;;;;;2482690;23;20760;-72
2022/04/20 04:19:43;;;;;;;15.85;12.45;;;2.80;99.90;;;;;;2471730;23;20035;-72
2022/04/20 04:20:44;;;;;;;19.70;13.23;;;2.80;99.90;;;;;;2482454;23;20546;-71
2022/04/20 04:21:47;;;;;;;18.90;13.35;;;2.80;99.90;;;;;;2482505;23;20429;-70
2022/04/20 04:22:51;;;;;;;17.23;13.10;;;2.80;99.90;;;;;;2482744;23;20034;-71
2022/04/20 04:24:00;;;;;;;22.10;14.68;;;2.90;99.90;;;;;;2491606;23;20034;-71
2022/04/20 04:25:07;;;;;;;17.90;13.55;;;2.80;99.90;;;;;;2482635;23;20098;-71
2022/04/20 04:26:09;;;;;;;19.10;13.93;;;2.80;99.90;;;;;;2482895;23;20046;-73
2022/04/20 04:27:16;;;;;;;20.73;14.50;;;2.90;99.90;;;;;;2493576;23;19999;-73
2022/04/20 04:28:18;;;;;;;21.13;14.75;;;2.90;99.90;;;;;;2483602;23;20019;-71
2022/04/20 04:29:20;;;;;;;17.80;13.95;;;2.90;99.90;;;;;;2472464;23;20438;-71
2022/04/20 04:30:20;;;;;;;18.33;13.63;;;2.90;99.90;;;;;;2471252;24;20121;-70
2022/04/20 04:31:30;;;;;;;17.52;13.70;;;3.00;99.90;;;;;;2495092;23;20011;-71
2022/04/20 04:32:31;;;;;;;17.60;13.73;;;3.00;99.90;;;;;;2493281;23;20079;-69
2022/04/20 04:33:34;;;;;;;23.85;18.13;;;3.00;99.90;;;;;;2494479;23;20007;-71
2022/04/20 04:34:35;;;;;;;23.27;19.33;;;3.00;99.90;;;;;;2490392;23;20468;-72
2022/04/20 04:35:40;;;;;;;25.95;20.20;;;3.10;99.90;;;;;;2508012;23;20010;-70
2022/04/20 04:36:45;;;;;;;22.77;17.92;;;3.10;99.90;;;;;;2506157;23;20007;-70
2022/04/20 04:37:49;;;;;;;21.60;16.40;;;3.10;99.90;;;;;;2495699;23;20034;-70
2022/04/20 04:38:54;;;;;;;22.55;16.90;;;3.10;99.90;;;;;;2507294;23;20010;-70
2022/04/20 04:40:00;;;;;;;21.65;18.02;;;3.10;99.90;;;;;;2519154;23;20018;-72
2022/04/20 04:41:01;;;;;;;22.73;18.08;;;3.10;99.90;;;;;;2518631;23;20110;-73
2022/04/20 04:42:06;;;;;;;23.45;18.02;;;3.20;99.90;;;;;;2495024;23;20007;-72
2022/04/20 04:43:08;;;;;;;21.48;18.02;;;3.10;99.90;;;;;;2506190;23;20018;-71
2022/04/20 04:44:13;;;;;;;23.13;16.92;;;3.20;99.90;;;;;;2506338;23;20034;-71
2022/04/20 04:49:21;;;;;;;29.65;21.00;;;3.30;99.90;;;;;;2498765;23;20004;-73
2022/04/20 04:50:22;;;;;;;28.05;20.45;;;3.30;99.90;;;;;;2506621;23;20086;-72
2022/04/20 04:51:23;;;;;;;23.38;18.33;;;3.40;99.90;;;;;;2483120;23;20442;-70
2022/04/20 04:52:23;;;;;;;21.38;17.17;;;3.40;99.90;;;;;;2495141;23;20006;-71
2022/04/20 04:53:34;;;;;;;21.10;16.50;;;3.40;99.90;;;;;;2506382;23;20007;-69
2022/04/20 04:54:36;;;;;;;19.85;15.80;;;3.40;99.90;;;;;;2506575;23;20093;-70
2022/04/20 04:55:37;;;;;;;20.02;14.65;;;3.40;99.90;;;;;;2507013;23;20110;-70
2022/04/20 04:56:38;;;;;;;22.40;16.60;;;3.40;99.90;;;;;;2506703;23;20355;-70
2022/04/20 04:57:38;;;;;;;20.67;15.93;;;3.40;99.90;;;;;;2495097;23;20008;-73
2022/04/20 04:58:39;;;;;;;19.77;15.70;;;3.40;99.90;;;;;;2518895;23;20014;-71
2022/04/20 04:59:41;;;;;;;19.27;15.02;;;3.40;99.90;;;;;;2507166;23;20498;-70
2022/04/20 05:00:42;;;;;;;18.50;14.80;;;3.50;99.90;;;;;;2506646;23;20478;-72
2022/04/20 05:01:54;;;;;;;18.70;14.85;;;3.50;99.90;;;;;;2504802;23;20487;-70
2022/04/20 05:02:54;;;;;;;18.63;14.15;;;3.50;99.90;;;;;;2506847;23;20023;-70
2022/04/20 05:03:55;;;;;;;18.15;14.10;;;3.50;99.90;;;;;;2518115;23;20014;-70
2022/04/20 05:04:57;;;;;;;17.25;13.55;;;3.60;99.90;;;;;;2506491;23;20530;-72
2022/04/20 05:05:57;;;;;;;19.10;14.05;;;3.60;99.90;;;;;;2506892;23;20015;-71
2022/04/20 05:07:18;;;;;;;18.13;13.40;;;3.70;99.90;;;;;;2507211;23;20015;-70
2022/04/20 05:08:44;;;;;;;17.35;13.35;;;3.70;99.90;;;;;;2503575;23;20470;-71
2022/04/20 05:09:46;;;;;;;17.13;12.93;;;3.70;99.90;;;;;;2506824;23;20425;-70
2022/04/20 05:10:48;;;;;;;19.33;13.85;;;3.70;99.90;;;;;;2506648;23;20007;-72
2022/04/20 05:11:51;;;;;;;17.48;13.68;;;3.70;99.90;;;;;;2494917;23;20015;-69
2022/04/20 05:12:52;;;;;;;17.85;14.75;;;3.70;99.90;;;;;;2495235;23;20412;-72
2022/04/20 05:13:54;;;;;;;19.15;15.63;;;3.80;99.90;;;;;;2494426;23;20011;-71
2022/04/20 05:14:56;;;;;;;18.33;15.07;;;3.80;99.90;;;;;;2483569;23;20263;-71
2022/04/20 05:15:56;;;;;;;19.80;15.10;;;3.80;99.90;;;;;;2495152;23;20015;-71
2022/04/20 05:16:59;;;;;;;20.73;15.57;;;3.80;99.90;;;;;;2507955;23;20011;-71
2022/04/20 05:18:00;;;;;;;18.70;14.75;;;3.90;99.90;;;;;;2507665;23;20182;-73
2022/04/20 05:19:01;;;;;;;17.65;14.02;;;3.90;99.90;;;;;;2508011;23;20042;-71
2022/04/20 05:20:01;;;;;;;17.27;14.20;;;3.90;99.90;;;;;;2506706;23;20006;-72
2022/04/20 05:21:02;;;;;;;16.88;13.50;;;3.90;99.90;;;;;;2507016;23;20021;-70
2022/04/20 05:22:03;;;;;;;16.80;13.57;;;3.90;99.90;;;;;;2507019;23;20011;-69
2022/04/20 05:23:08;;;;;;;16.83;13.13;;;4.00;99.90;;;;;;2494518;23;20018;-71
2022/04/20 05:24:11;;;;;;;15.68;12.65;;;4.00;99.90;;;;;;2507093;23;20002;-70
2022/04/20 05:25:14;;;;;;;17.88;13.77;;;4.00;99.90;;;;;;2517931;23;20748;-70
2022/04/20 05:26:15;;;;;;;17.70;13.50;;;4.00;99.90;;;;;;2472102;23;20016;-70
2022/04/20 05:27:19;;;;;;;16.20;13.18;;;4.10;99.90;;;;;;2484270;23;20023;-72
2022/04/20 05:28:28;;;;;;;17.15;13.38;;;4.10;99.90;;;;;;2496644;23;20027;-71
2022/04/20 05:29:29;;;;;;;17.83;13.25;;;4.10;99.90;;;;;;2507124;23;20448;-71
2022/04/20 05:30:37;;;;;;;17.85;13.32;;;4.10;99.90;;;;;;2494864;23;20110;-70
2022/04/20 05:31:38;;;;;;;20.35;14.15;;;4.10;99.90;;;;;;2506980;23;20486;-70
2022/04/20 05:32:42;;;;;;;16.50;13.00;;;4.10;99.90;;;;;;2494802;23;20350;-71
2022/04/20 05:33:49;;;;;;;18.52;14.15;;;4.10;99.90;;;;;;2498040;23;20008;-71
2022/04/20 05:34:50;;;;;;;21.63;16.73;;;4.20;99.90;;;;;;2518676;23;20093;-71
2022/04/20 05:35:54;;;;;;;22.10;17.60;;;4.20;99.90;;;;;;2495216;23;20031;-73
2022/04/20 05:42:18;;;;;;;18.90;14.40;;;4.20;99.90;;;;;;2499082;23;20612;-74
2022/04/20 05:43:18;;;;;;;21.48;14.70;;;4.20;99.90;;;;;;2506527;23;20039;-72
2022/04/20 05:44:19;;;;;;;20.13;14.90;;;4.20;99.90;;;;;;2495020;23;20115;-69
2022/04/20 05:45:20;;;;;;;18.52;14.38;;;4.20;99.90;;;;;;2507330;23;20014;-74